createdAt,value
2022-09-16T00:00:29.923Z,13.63
2022-09-16T00:03:20.618Z,13.61
2022-09-16T00:05:53.474Z,13.61
2022-09-16T00:08:24.588Z,13.60
2022-09-16T00:10:54.967Z,13.60
2022-09-16T00:13:25.557Z,13.58
2022-09-16T00:15:56.242Z,13.57
2022-09-16T00:18:26.846Z,13.55
2022-09-16T00:20:57.277Z,13.55
2022-09-16T00:23:27.406Z,13.55
2022-09-16T00:25:57.714Z,13.57
2022-09-16T00:28:27.997Z,13.56
2022-09-16T00:31:02.999Z,13.55
2022-09-16T00:33:33.483Z,13.56
2022-09-16T00:36:19.359Z,13.56
2022-09-16T00:38:55.433Z,13.56
2022-09-16T00:41:28.851Z,13.56
2022-09-16T00:44:03.491Z,13.54
2022-09-16T00:46:42.291Z,13.51
2022-09-16T00:49:21.639Z,13.46
2022-09-16T00:51:56.154Z,13.44
2022-09-16T00:54:27.187Z,13.41
2022-09-16T00:56:59.654Z,13.37
2022-09-16T00:59:33.594Z,13.35
2022-09-16T01:02:12.493Z,13.32
2022-09-16T01:04:53.821Z,13.33
2022-09-16T01:07:34.717Z,13.32
2022-09-16T01:10:05.686Z,13.32
2022-09-16T01:12:37.306Z,13.32
2022-09-16T01:15:08.862Z,13.32
2022-09-16T01:18:25.507Z,13.31
2022-09-16T01:21:02.047Z,13.32
2022-09-16T01:23:46.065Z,13.27
2022-09-16T01:26:35.117Z,13.24
2022-09-16T01:29:29.626Z,13.18
2022-09-16T01:32:13.577Z,13.12
2022-09-16T01:35:13.535Z,13.15
2022-09-16T01:38:11.787Z,13.17
2022-09-16T01:41:05.480Z,13.17
2022-09-16T01:44:01.514Z,13.18
2022-09-16T01:46:47.905Z,13.18
2022-09-16T01:49:18.124Z,13.20
2022-09-16T01:52:20.216Z,13.18
2022-09-16T01:55:06.527Z,13.17
2022-09-16T01:57:55.585Z,13.13
2022-09-16T02:00:26.246Z,13.09
2022-09-16T02:03:13.754Z,13.07
2022-09-16T02:06:01.756Z,13.05
2022-09-16T02:08:36.426Z,13.01
2022-09-16T02:11:10.705Z,13.00
2022-09-16T02:13:48.641Z,13.00
2022-09-16T02:16:37.877Z,13.00
2022-09-16T02:19:13.790Z,12.98
2022-09-16T02:21:46.008Z,12.96
2022-09-16T02:24:20.134Z,12.95
2022-09-16T02:27:01.426Z,12.95
2022-09-16T02:29:39.847Z,12.90
2022-09-16T02:32:11.945Z,12.89
2022-09-16T02:34:47.127Z,12.88
2022-09-16T02:37:22.314Z,12.86
2022-09-16T02:39:58.138Z,12.87
2022-09-16T02:42:28.991Z,12.86
2022-09-16T02:45:00.903Z,12.82
2022-09-16T02:47:52.784Z,12.81
2022-09-16T02:50:40.619Z,12.84
2022-09-16T02:53:35.787Z,12.84
2022-09-16T02:56:24.595Z,12.81
2022-09-16T03:03:24.636Z,12.74
2022-09-16T03:06:21.324Z,12.68
2022-09-16T03:08:57.934Z,12.68
2022-09-16T03:11:43.366Z,12.68
2022-09-16T03:14:33.265Z,12.70
2022-09-16T03:17:22.217Z,12.67
2022-09-16T03:20:22.856Z,12.65
2022-09-16T03:23:33.836Z,12.64
2022-09-16T03:26:13.466Z,12.57
2022-09-16T03:28:56.555Z,12.55
2022-09-16T03:31:35.604Z,12.53
2022-09-16T03:34:21.523Z,12.55
2022-09-16T03:36:57.185Z,12.55
2022-09-16T03:39:27.835Z,12.54
2022-09-16T03:42:04.896Z,12.54
2022-09-16T03:44:37.306Z,12.57
2022-09-16T03:47:09.583Z,12.58
2022-09-16T03:49:40.425Z,12.57
2022-09-16T03:52:12.849Z,12.55
2022-09-16T03:54:43.344Z,12.53
2022-09-16T03:57:15.163Z,12.51
2022-09-16T03:59:45.349Z,12.52
2022-09-16T04:02:15.749Z,12.53
2022-09-16T04:04:46.646Z,12.53
2022-09-16T04:07:17.124Z,12.52
2022-09-16T04:09:48.837Z,12.54
2022-09-16T04:12:19.184Z,12.54
2022-09-16T04:14:49.516Z,12.54
2022-09-16T04:17:19.935Z,12.53
2022-09-16T04:19:50.245Z,12.50
2022-09-16T04:22:20.936Z,12.47
2022-09-16T04:24:53.795Z,12.42
2022-09-16T04:27:25.543Z,12.39
2022-09-16T04:29:56.384Z,12.38
2022-09-16T04:32:27.144Z,12.34
2022-09-16T04:34:58.836Z,12.32
2022-09-16T04:37:33.046Z,12.33
2022-09-16T04:40:04.897Z,12.31
2022-09-16T04:42:35.541Z,12.32
2022-09-16T04:45:06.695Z,12.32
2022-09-16T04:47:37.046Z,12.29
2022-09-16T04:50:07.867Z,12.28
2022-09-16T04:52:38.315Z,12.26
2022-09-16T04:55:08.986Z,12.28
2022-09-16T04:57:41.656Z,12.29
2022-09-16T05:00:13.405Z,12.29
2022-09-16T05:02:46.560Z,12.30
2022-09-16T05:05:17.715Z,12.29
2022-09-16T05:07:48.144Z,12.26
2022-09-16T05:10:18.527Z,12.26
2022-09-16T05:12:55.701Z,12.24
2022-09-16T05:15:26.156Z,12.23
2022-09-16T05:17:59.407Z,12.26
2022-09-16T05:20:29.834Z,12.26
2022-09-16T05:23:00.385Z,12.25
2022-09-16T05:25:30.916Z,12.22
2022-09-16T05:28:01.844Z,12.21
2022-09-16T05:30:32.244Z,12.18
2022-09-16T05:33:03.757Z,12.17
2022-09-16T05:35:34.108Z,12.13
2022-09-16T05:38:05.344Z,12.11
2022-09-16T05:40:35.879Z,12.12
2022-09-16T05:43:49.374Z,12.12
2022-09-16T05:47:01.599Z,12.18
2022-09-16T05:49:33.294Z,12.17
2022-09-16T05:52:03.627Z,12.16
2022-09-16T05:54:34.099Z,12.18
2022-09-16T05:57:07.202Z,12.19
2022-09-16T06:00:04.415Z,12.16
2022-09-16T06:03:23.238Z,12.21
2022-09-16T06:06:44.437Z,12.25
2022-09-16T06:10:00.141Z,12.27
2022-09-16T06:12:39.343Z,12.26
2022-09-16T06:16:02.365Z,12.22
2022-09-16T06:23:25.448Z,12.16
2022-09-16T06:26:10.627Z,12.11
2022-09-16T06:29:04.956Z,12.13
2022-09-16T06:31:57.638Z,12.17
2022-09-16T06:34:38.449Z,12.19
2022-09-16T06:37:35.564Z,12.20
2022-09-16T06:40:38.440Z,12.21
2022-09-16T07:36:04.572Z,13.33
2022-09-16T07:47:36.178Z,13.62
2022-09-16T07:59:45.187Z,13.71
2022-09-16T08:09:56.333Z,13.87
2022-09-16T08:17:01.605Z,14.13
2022-09-16T08:20:36.245Z,14.24
2022-09-16T08:23:07.637Z,14.24
2022-09-16T08:52:07.872Z,14.95
2022-09-16T08:55:20.825Z,15.01
2022-09-16T08:58:24.047Z,15.06
2022-09-16T09:01:14.688Z,14.98
2022-09-16T09:03:57.827Z,14.93
2022-09-16T09:07:16.756Z,14.93
2022-09-16T09:10:50.368Z,14.86
2022-09-16T09:14:16.652Z,14.82
2022-09-16T09:17:48.540Z,14.78
2022-09-16T09:22:24.991Z,14.77
2022-09-16T09:25:37.554Z,14.87
2022-09-16T09:29:07.773Z,15.02
2022-09-16T09:32:28.852Z,15.17
2022-09-16T09:41:07.761Z,15.37
2022-09-16T09:49:58.836Z,15.71
2022-09-16T09:53:12.746Z,15.75
2022-09-16T10:01:11.801Z,15.59
2022-09-16T10:09:47.774Z,15.29
2022-09-16T10:16:34.910Z,15.16
2022-09-16T10:25:21.164Z,15.38
2022-09-16T10:28:51.796Z,15.42
2022-09-16T10:32:08.330Z,15.32
2022-09-16T10:35:30.865Z,15.47
2022-09-16T10:38:46.924Z,15.69
2022-09-16T10:42:06.575Z,15.90
2022-09-16T10:45:52.601Z,16.05
2022-09-16T10:49:32.905Z,16.12
2022-09-16T10:52:53.933Z,16.21
2022-09-16T10:56:15.049Z,16.31
2022-09-16T11:18:50.777Z,16.37
2022-09-16T11:22:01.768Z,16.49
2022-09-16T11:26:27.373Z,16.49
2022-09-16T11:30:08.810Z,16.55
2022-09-16T11:47:57.561Z,16.67
2022-09-16T11:55:53.555Z,16.77
2022-09-16T12:00:17.497Z,16.77
2022-09-16T12:07:44.264Z,16.77
2022-09-16T12:20:05.482Z,16.63
2022-09-16T12:33:48.520Z,16.71
2022-09-16T12:37:12.911Z,16.78
2022-09-16T12:51:26.215Z,16.59
2022-09-16T12:55:49.796Z,16.62
2022-09-16T13:04:00.776Z,16.60
2022-09-16T14:03:49.354Z,16.18
2022-09-16T14:07:59.428Z,16.18
2022-09-16T14:24:40.680Z,16.14
2022-09-16T14:27:49.897Z,16.12
2022-09-16T14:30:23.647Z,16.09
2022-09-16T14:37:03.035Z,16.10
2022-09-16T15:22:20.076Z,16.05
2022-09-16T15:33:11.984Z,16.07
2022-09-16T15:36:28.986Z,16.08
2022-09-16T15:39:54.874Z,16.10
2022-09-16T15:43:10.284Z,16.08
2022-09-16T15:46:45.990Z,16.09
2022-09-16T15:50:12.063Z,16.09
2022-09-16T15:53:58.269Z,16.07
2022-09-16T15:57:35.997Z,16.03
2022-09-16T16:00:30.936Z,16.02
2022-09-16T16:03:05.939Z,16.01
2022-09-16T16:05:52.561Z,15.97
2022-09-16T16:08:50.945Z,15.98
2022-09-16T16:12:16.752Z,15.95
2022-09-16T16:19:25.964Z,15.87
2022-09-16T16:21:57.615Z,15.82
2022-09-16T16:24:50.867Z,15.80
2022-09-16T16:27:59.887Z,15.80
2022-09-16T16:31:06.998Z,15.78
2022-09-16T16:33:40.386Z,15.77
2022-09-16T16:36:43.813Z,15.74
2022-09-16T16:44:08.002Z,15.64
2022-09-16T16:46:38.678Z,15.59
2022-09-16T16:49:09.394Z,15.56
2022-09-16T16:51:39.897Z,15.55
2022-09-16T16:54:32.053Z,15.51
2022-09-16T16:57:54.754Z,15.47
2022-09-16T17:00:54.729Z,15.39
2022-09-16T17:03:52.015Z,15.34
2022-09-16T17:07:48.462Z,15.31
2022-09-16T17:11:05.729Z,15.28
2022-09-16T17:14:25.948Z,15.22
2022-09-16T17:17:40.893Z,15.19
2022-09-16T17:20:54.818Z,15.07
2022-09-16T17:24:15.513Z,15.04
2022-09-16T17:27:02.288Z,15.00
2022-09-16T17:30:29.163Z,14.96
2022-09-16T17:33:49.041Z,14.98
2022-09-16T17:36:41.786Z,14.96
2022-09-16T17:41:16.427Z,14.96
2022-09-16T17:49:50.529Z,14.88
2022-09-16T17:53:12.844Z,14.85
2022-09-16T17:56:35.338Z,14.82
2022-09-16T18:00:04.878Z,14.81
2022-09-16T18:03:25.028Z,14.78
2022-09-16T18:06:48.906Z,14.76
2022-09-16T18:13:36.742Z,14.76
2022-09-16T18:17:24.890Z,14.72
2022-09-16T18:20:42.131Z,14.72
2022-09-16T18:23:50.097Z,14.71
2022-09-16T18:27:21.413Z,14.70
2022-09-16T18:30:46.321Z,14.68
2022-09-16T18:34:29.998Z,14.68
2022-09-16T18:37:17.714Z,14.66
2022-09-16T18:40:40.227Z,14.64
2022-09-16T18:44:01.918Z,14.61
2022-09-16T18:47:17.709Z,14.59
2022-09-16T18:50:36.527Z,14.53
2022-09-16T18:53:56.054Z,14.53
2022-09-16T18:57:11.678Z,14.53
2022-09-16T19:00:27.999Z,14.50
2022-09-16T19:03:46.873Z,14.48
2022-09-16T19:07:09.737Z,14.46
2022-09-16T19:10:25.288Z,14.42
2022-09-16T19:13:40.806Z,14.40
2022-09-16T19:17:02.153Z,14.38
2022-09-16T19:20:17.099Z,14.38
2022-09-16T19:23:36.967Z,14.32
2022-09-16T19:26:55.196Z,14.31
2022-09-16T19:30:32.811Z,14.29
2022-09-16T19:34:03.845Z,14.28
2022-09-16T19:42:18.018Z,14.18
2022-09-16T19:45:33.726Z,14.15
2022-09-16T19:48:55.733Z,14.14
2022-09-16T19:55:14.724Z,14.12
2022-09-16T19:58:34.989Z,14.11
2022-09-16T20:01:59.151Z,14.06
2022-09-16T20:05:15.888Z,14.07
2022-09-16T20:08:42.123Z,14.04
2022-09-16T20:11:56.832Z,14.03
2022-09-16T20:14:51.455Z,14.03
2022-09-16T20:17:57.388Z,14.01
2022-09-16T20:20:36.022Z,13.99
2022-09-16T20:28:21.717Z,13.93
2022-09-16T20:31:11.039Z,13.90
2022-09-16T20:33:42.682Z,13.88
2022-09-16T20:36:41.813Z,13.87
2022-09-16T20:44:27.067Z,13.79
2022-09-16T20:47:00.322Z,13.77
2022-09-16T20:49:33.673Z,13.75
2022-09-16T20:52:09.574Z,13.75
2022-09-16T20:55:26.818Z,13.75
2022-09-16T20:58:18.683Z,13.73
2022-09-16T21:02:05.044Z,13.71
2022-09-16T21:05:28.264Z,13.66
2022-09-16T21:08:47.792Z,13.59
2022-09-16T21:11:45.632Z,13.57
2022-09-16T21:14:47.490Z,13.55
2022-09-16T21:17:40.712Z,13.52
2022-09-16T21:20:18.734Z,13.49
2022-09-16T21:25:53.757Z,13.44
2022-09-16T21:29:11.525Z,13.41
2022-09-16T21:37:00.165Z,13.36
2022-09-16T21:41:07.203Z,13.30
2022-09-16T21:44:22.960Z,13.23
2022-09-16T21:47:50.200Z,13.19
2022-09-16T21:51:19.127Z,13.14
2022-09-16T21:54:43.851Z,13.09
2022-09-16T21:58:28.335Z,13.02
2022-09-16T22:02:22.218Z,12.99
2022-09-16T22:11:08.027Z,12.88
2022-09-16T22:20:08.759Z,12.79
2022-09-16T22:24:03.062Z,12.74
2022-09-16T22:27:31.663Z,12.71
2022-09-16T22:39:14.204Z,12.64
2022-09-16T22:42:34.139Z,12.61
2022-09-16T22:45:55.870Z,12.59
2022-09-16T22:54:14.674Z,12.56
2022-09-16T23:05:49.749Z,12.63
2022-09-16T23:09:10.865Z,12.65
2022-09-16T23:12:31.442Z,12.69
2022-09-16T23:15:54.093Z,12.68
2022-09-16T23:19:25.637Z,12.68
2022-09-16T23:22:24.721Z,12.66
2022-09-16T23:25:23.759Z,12.63
2022-09-16T23:28:41.655Z,12.59
2022-09-16T23:32:03.192Z,12.55
2022-09-16T23:35:19.666Z,12.57
2022-09-16T23:38:56.777Z,12.53
2022-09-16T23:43:05.023Z,12.52
2022-09-16T23:47:02.045Z,12.50
2022-09-16T23:51:15.107Z,12.48
